Accueil
METAR-TAF:

METAR-TAF

Aéroports :

Aéroport de Jaipur

Jaipur, Inde

latitude: 26-49N, longitude: 075-48E, altitude: 385 m

Observation

Le bulletin a été fait il y a 47 minutes, à 23:00 UTC
Vent 5 kt de est/nord-est
Température 19°C
Humidité 60%
Pression 1014 hPa
Visibilité: 3000 m
Quelques nuages à une hauteur de 10000 ft
brume sèche

METAR: VIJP 262300Z 07005KT 3000 HZ FEW100 19/11 Q1014 NOSIG

Heure: 05:17 (23:47 UTC)

Prévision

Le bulletin a été fait il y a 6 heures et 47 minutes, à 17:00 UTC
Prévision valable du 26 à 18 UTC au 27 à 03 UTC
Vent 3 kt de direction variable
Visibilité: 2500 m
Quelques nuages à une hauteur de 10000 ft
brume sèche
Evoluant progressivement
du 27 à 00 UTC au 27 à 02 UTC
Vent 4 kt de est
Visibilité: 2000 m
brume sèche

TAF: VIJP 261700Z 2618/2703 VRB03KT 2500 HZ FEW100 BECMG 2700/2702 09004KT 2000 HZ

Observations et prévisions météorologiques de plus de 4000 aéroports (messages METAR et TAF).

Les stations disponibles sont représentées par des disques jaunes et rouges sur la carte.

Passer la souris dessus pour voir le nom de la station.

Cliquer dessus pour voir les observations et prévisions météorologiques.

Pour changer de carte: cliquez sur les boutons verts avec une croix noire pour zoomer, sur le bouton vert avec un tiret pour effectuer un zoom arrière, ou sur les flèches vertes pour les cartes adjacentes.


METAR-TAF: